Rio Grande — WDG9180 — position and weather

sailwx.info

Track history (hours):
 
Tides and Currents Weather Stations Pressure Air Temp Water Temp Dewpoint Dewpoint Depression Visibility Wind Speed Wind Dir Waves Ship Positions

Rio Grande

Owner: Higman Barge Lines, Inc, Orange, TX. More information available from US FCC via Universal Licensing System and Coast Guard Vessel Documentation Center.

Last reported at 2018-Jun-01 09:23 UTC. Time now 2018-Jun-18 15:02 UTC.
Position N 31°26' W 091°30'.
Warning: this ship's position is 17 days out of date.

Length 22 m.

Type: Towing. MMSI: 367585170.

Date/timePositionNaut miles runAvg speedWind from/ knotsBaromVisibWave heightAir tempDewpointWater temp
2018-Jun-01 09:23N 31°26' W 091°30'19 8.5
2018-Jun-01 07:08N 31°44' W 091°23'17 7.8
2018-Jun-01 04:54N 31°58' W 091°11'4 9.6
2018-Jun-01 04:26N 31°59' W 091°06'510.2
2018-Jun-01 03:59N 32°03' W 091°03'510.1
2018-Jun-01 03:31N 32°07' W 091°07'5 9.7
2018-Jun-01 03:00N 32°08' W 091°01'510.7
2018-Jun-01 02:30N 32°13' W 090°59'510.1
2018-Jun-01 02:00N 32°17' W 090°56'3 6.9
2018-Jun-01 01:30N 32°21' W 090°56'4 8.4
2018-Jun-01 01:00N 32°22' W 091°00'4 8.4
2018-Jun-01 00:30N 32°26' W 091°02'510.2
2018-Jun-01 00:00N 32°29' W 091°07'5 9.8
2018-May-31 23:30N 32°34' W 091°06'5 9.7
2018-May-31 23:00N 32°38' W 091°09'  
Track history (hours):
 
Tides and Currents Weather Stations Pressure Air Temp Water Temp Dewpoint Dewpoint Depression Visibility Wind Speed Wind Dir Waves Ship Positions

Rio Grande

Owner: Higman Barge Lines, Inc, Orange, TX. More information available from US FCC via Universal Licensing System and Coast Guard Vessel Documentation Center.

Last reported at 2018-Jun-01 09:23 UTC. Time now 2018-Jun-18 15:02 UTC.
Position N 31°26' W 091°30'.
Warning: this ship's position is 17 days out of date.

Length 22 m.

Type: Towing. MMSI: 367585170.

Date/timePositionNaut miles runAvg speedWind from/ knotsBaromVisibWave heightAir tempDewpointWater temp
2018-Jun-01 09:23N 31°26' W 091°30'19 8.5
2018-Jun-01 07:08N 31°44' W 091°23'17 7.8
2018-Jun-01 04:54N 31°58' W 091°11'4 9.6
2018-Jun-01 04:26N 31°59' W 091°06'510.2
2018-Jun-01 03:59N 32°03' W 091°03'510.1
2018-Jun-01 03:31N 32°07' W 091°07'5 9.7
2018-Jun-01 03:00N 32°08' W 091°01'510.7
2018-Jun-01 02:30N 32°13' W 090°59'510.1
2018-Jun-01 02:00N 32°17' W 090°56'3 6.9
2018-Jun-01 01:30N 32°21' W 090°56'4 8.4
2018-Jun-01 01:00N 32°22' W 091°00'4 8.4
2018-Jun-01 00:30N 32°26' W 091°02'510.2
2018-Jun-01 00:00N 32°29' W 091°07'5 9.8
2018-May-31 23:30N 32°34' W 091°06'5 9.7
2018-May-31 23:00N 32°38' W 091°09'  

Dump ship's entire track history